LIPQ Airport Information

Runway Information
Runway 09 Length 9843 ft width 148 ft
Elevation 37 ft Threshold 656 ft Heading 90
Runway 27 Length 9843 ft Width 148 ft
Elevation 36 ft Threshold 0 ft Heading 270
Airport Frequencies
Type APP Name APP Frequency 119.175 MHZ
Type TWR Name TWR Frequency 130.2 MHZ
Airport Navaids
Type VOR-DME Name Ronchi Frequency 114200 KHZ
Type NDB Name Ronchi Frequency 396 KHZ
Airport Weather Information & NOTAM
ADDS - METARS form results

(0538 UTC 17 October 2021)
Data provider http://aviationweather.gov/metar/data/
 
METAR text: LIPQ 170520Z AUTO 02004KT 9999 NCD 06/05 Q1019
Conditions at: LIPQ (RONCHI LEGIONARI, IT) observed 0520 UTC 17 October 2021
Temperature: 6.0°C (43°F)
Dewpoint: 5.0°C (41°F) [RH = 93%]
Pressure (altimeter): 30.09 inches Hg (1019.0 mb)
Winds: from the NNE (20 degrees) at 5 MPH (4 knots; 2.1 m/s)
Visibility: 6 or more miles (10+ km)
Ceiling: at least 12,000 feet AGL
Clouds: sky clear below 12,000 feet AGL
Weather: no significant weather observed at this time

METAR text: LIPQ 170450Z AUTO 01007KT 9999 NCD 07/05 Q1019
Conditions at: LIPQ (RONCHI LEGIONARI, IT) observed 0450 UTC 17 October 2021
Temperature: 7.0°C (45°F)
Dewpoint: 5.0°C (41°F) [RH = 87%]
Pressure (altimeter): 30.09 inches Hg (1019.0 mb)
Winds: from the N (10 degrees) at 8 MPH (7 knots; 3.6 m/s)
Visibility: 6 or more miles (10+ km)
Ceiling: at least 12,000 feet AGL
Clouds: sky clear below 12,000 feet AGL
Weather: no significant weather observed at this time

Forecast for: LIPQ (RONCHI LEGIONARI, IT)
Text: TAF LIPQ 170500Z 1706/1806 06006KT CAVOK
Forecast period: 0600 UTC 17 October 2021 to 0600 UTC 18 October 2021
Forecast type: FROM: standard forecast or significant change
Winds: from the ENE (60 degrees) at 7 MPH (6 knots; 3.1 m/s)
Visibility: 6 or more miles (10+ km)
Ceiling: unknown
Clouds: missing
Weather: NSW  (no significant weather)